createdAt,value
2023-01-08T00:01:54.923Z,50.10
2023-01-08T00:04:24.167Z,49.70
2023-01-08T00:06:52.092Z,53.30
2023-01-08T00:09:20.079Z,49.50
2023-01-08T00:11:49.318Z,46.00
2023-01-08T00:14:17.221Z,50.30
2023-01-08T00:16:45.340Z,48.00
2023-01-08T00:19:13.572Z,50.30
2023-01-08T00:21:41.483Z,49.10
2023-01-08T00:24:09.423Z,53.00
2023-01-08T00:26:40.588Z,56.60
2023-01-08T00:29:08.720Z,54.80
2023-01-08T00:31:36.728Z,56.20
2023-01-08T00:34:04.840Z,59.70
2023-01-08T00:36:34.176Z,62.40
2023-01-08T00:39:02.144Z,60.70
2023-01-08T00:41:30.160Z,56.90
2023-01-08T00:43:58.076Z,47.60
2023-01-08T00:46:26.184Z,51.70
2023-01-08T00:48:54.093Z,45.10
2023-01-08T00:51:22.177Z,43.00
2023-01-08T00:53:50.064Z,44.40
2023-01-08T00:56:18.005Z,47.30
2023-01-08T00:58:45.890Z,47.50
2023-01-08T01:01:15.122Z,46.70
2023-01-08T01:03:45.185Z,47.10
2023-01-08T01:06:14.260Z,46.30
2023-01-08T01:08:44.417Z,44.90
2023-01-08T01:11:22.938Z,47.70
2023-01-08T01:13:51.522Z,50.30
2023-01-08T01:16:19.761Z,42.00
2023-01-08T01:18:48.076Z,43.20
2023-01-08T01:21:27.988Z,44.10
2023-01-08T01:23:58.883Z,48.10
2023-01-08T01:26:27.967Z,42.40
2023-01-08T01:28:57.983Z,44.60
2023-01-08T01:31:29.464Z,57.60
2023-01-08T01:33:58.354Z,58.70
2023-01-08T01:36:26.931Z,55.00
2023-01-08T01:38:57.352Z,56.80
2023-01-08T01:41:38.044Z,53.60
2023-01-08T01:44:43.502Z,48.40
2023-01-08T01:47:27.942Z,55.70
2023-01-08T01:50:14.043Z,55.70
2023-01-08T01:53:12.090Z,63.80
2023-01-08T01:55:43.030Z,60.10
2023-01-08T01:58:17.425Z,68.20
2023-01-08T02:00:45.568Z,59.00
2023-01-08T02:03:15.757Z,53.40
2023-01-08T02:05:56.562Z,49.10
2023-01-08T02:08:47.439Z,59.60
2023-01-08T02:11:27.801Z,45.70
2023-01-08T02:14:05.416Z,45.70
2023-01-08T02:16:55.411Z,45.50
2023-01-08T02:19:38.729Z,50.30
2023-01-08T02:22:09.481Z,54.70
2023-01-08T02:25:15.516Z,47.20
2023-01-08T02:27:46.021Z,41.80
2023-01-08T02:30:14.402Z,53.80
2023-01-08T02:32:42.966Z,49.80
2023-01-08T02:35:12.239Z,54.90
2023-01-08T02:37:40.883Z,46.40
2023-01-08T02:40:17.594Z,48.20
2023-01-08T02:43:02.090Z,57.30
2023-01-08T02:45:51.263Z,60.90
2023-01-08T02:48:40.400Z,54.70
2023-01-08T02:51:40.276Z,52.50
2023-01-08T02:54:15.855Z,52.90
2023-01-08T02:56:55.355Z,57.20
2023-01-08T02:59:24.129Z,54.30
2023-01-08T03:01:52.425Z,67.50
2023-01-08T03:04:22.897Z,71.70
2023-01-08T03:06:51.188Z,71.00
2023-01-08T03:09:19.409Z,68.40
2023-01-08T03:11:55.678Z,66.30
2023-01-08T03:14:30.176Z,72.30
2023-01-08T03:17:08.040Z,70.70
2023-01-08T03:19:54.965Z,58.70
2023-01-08T03:22:23.876Z,68.60
2023-01-08T03:24:53.477Z,65.40
2023-01-08T03:27:29.907Z,58.10
2023-01-08T03:29:59.946Z,62.10
2023-01-08T03:32:29.706Z,58.60
2023-01-08T03:34:59.791Z,62.50
2023-01-08T03:37:34.688Z,52.70
2023-01-08T03:40:23.348Z,62.80
2023-01-08T03:42:51.337Z,64.90
2023-01-08T03:45:20.227Z,64.50
2023-01-08T03:47:48.896Z,61.80
2023-01-08T03:50:23.196Z,62.20
2023-01-08T03:52:51.005Z,64.40
2023-01-08T03:55:19.004Z,62.90
2023-01-08T03:57:46.903Z,59.40
2023-01-08T04:00:15.766Z,65.50
2023-01-08T04:02:43.786Z,62.50
2023-01-08T04:05:14.049Z,60.00
2023-01-08T04:07:42.014Z,62.20
2023-01-08T04:10:10.492Z,67.00
2023-01-08T04:12:38.804Z,63.30
2023-01-08T04:15:07.549Z,66.70
2023-01-08T04:17:35.529Z,71.10
2023-01-08T04:20:04.002Z,65.70
2023-01-08T04:22:31.965Z,72.20
2023-01-08T04:24:59.833Z,70.00
2023-01-08T04:27:27.842Z,78.60
2023-01-08T04:29:55.764Z,81.60
2023-01-08T04:32:23.738Z,92.60
2023-01-08T04:34:51.571Z,94.90
2023-01-08T04:37:19.508Z,86.50
2023-01-08T04:39:47.479Z,91.50
2023-01-08T04:42:15.464Z,81.00
2023-01-08T04:44:43.318Z,84.00
2023-01-08T04:47:11.329Z,83.90
2023-01-08T04:49:39.235Z,76.30
2023-01-08T04:52:07.185Z,72.10
2023-01-08T04:54:35.051Z,89.30
2023-01-08T04:57:03.044Z,75.10
2023-01-08T04:59:31.093Z,76.70
2023-01-08T05:01:59.549Z,61.20
2023-01-08T05:04:27.605Z,65.90
2023-01-08T05:06:55.879Z,72.40
2023-01-08T05:09:26.070Z,67.20
2023-01-08T05:11:54.229Z,78.50
2023-01-08T05:14:22.296Z,72.60
2023-01-08T05:16:50.279Z,67.10
2023-01-08T05:19:18.276Z,64.50
2023-01-08T05:21:46.379Z,67.80
2023-01-08T05:24:14.376Z,66.50
2023-01-08T05:26:42.393Z,67.30
2023-01-08T05:29:10.717Z,59.60
2023-01-08T05:31:38.785Z,62.90
2023-01-08T05:34:06.794Z,75.10
2023-01-08T05:36:34.843Z,69.20
2023-01-08T05:39:03.444Z,65.90
2023-01-08T05:41:31.358Z,57.20
2023-01-08T05:44:00.342Z,59.80
2023-01-08T05:46:28.352Z,52.30
2023-01-08T05:48:57.842Z,62.60
2023-01-08T05:51:25.874Z,67.60
2023-01-08T05:53:53.844Z,63.60
2023-01-08T05:56:22.110Z,75.00
2023-01-08T05:58:54.179Z,71.40
2023-01-08T06:01:24.116Z,63.00
2023-01-08T06:03:55.767Z,58.60
2023-01-08T06:06:24.251Z,86.70
2023-01-08T06:08:52.476Z,82.00
2023-01-08T06:11:20.579Z,82.60
2023-01-08T06:13:48.748Z,78.80
2023-01-08T06:16:17.776Z,77.50
2023-01-08T06:18:45.910Z,78.00
2023-01-08T06:21:15.183Z,69.20
2023-01-08T06:23:43.247Z,77.90
2023-01-08T06:26:11.289Z,79.10
2023-01-08T06:28:39.221Z,77.70
2023-01-08T06:31:07.158Z,71.50
2023-01-08T06:33:35.211Z,77.40
2023-01-08T06:36:04.907Z,71.90
2023-01-08T06:38:37.105Z,74.90
2023-01-08T06:41:10.747Z,80.60
2023-01-08T06:43:39.226Z,77.50
2023-01-08T06:46:09.038Z,90.30
2023-01-08T06:48:37.549Z,120.10
2023-01-08T06:51:06.429Z,103.80
2023-01-08T06:53:34.578Z,103.30
2023-01-08T06:56:04.511Z,84.40
2023-01-08T06:58:32.586Z,80.60
2023-01-08T07:01:00.719Z,95.90
2023-01-08T07:03:28.830Z,80.10
2023-01-08T07:05:57.153Z,101.50
2023-01-08T07:08:25.162Z,88.00
2023-01-08T07:10:53.122Z,90.50
2023-01-08T07:13:22.754Z,79.50
2023-01-08T07:15:50.829Z,83.70
2023-01-08T07:18:18.880Z,77.10
2023-01-08T07:20:49.017Z,77.90
2023-01-08T07:23:17.194Z,69.30
2023-01-08T07:25:45.207Z,80.70
2023-01-08T07:28:13.371Z,81.10
2023-01-08T07:30:41.376Z,81.00
2023-01-08T07:33:09.386Z,72.20
2023-01-08T07:35:39.096Z,71.60
2023-01-08T07:38:07.050Z,88.80
2023-01-08T07:40:35.005Z,96.90
2023-01-08T07:43:04.747Z,78.50
2023-01-08T07:45:32.775Z,74.10
2023-01-08T07:48:00.847Z,71.30
2023-01-08T07:50:29.050Z,69.60
2023-01-08T07:52:59.073Z,57.20
2023-01-08T07:55:29.017Z,65.30
2023-01-08T07:57:56.955Z,54.10
2023-01-08T08:00:25.098Z,62.50
2023-01-08T08:02:53.417Z,61.40
2023-01-08T08:05:21.548Z,66.90
2023-01-08T08:07:49.702Z,67.10
2023-01-08T08:10:17.704Z,82.00
2023-01-08T08:12:45.839Z,68.40
2023-01-08T08:15:14.265Z,72.70
2023-01-08T08:17:46.797Z,75.70
2023-01-08T08:20:15.718Z,67.30
2023-01-08T08:22:43.797Z,59.70
2023-01-08T08:25:12.561Z,56.70
2023-01-08T08:27:40.725Z,58.40
2023-01-08T08:30:10.856Z,59.50
2023-01-08T08:32:39.076Z,51.60
2023-01-08T08:35:07.543Z,69.60
2023-01-08T08:37:36.315Z,63.90
2023-01-08T08:40:08.489Z,58.80
2023-01-08T08:42:36.384Z,54.10
2023-01-08T08:45:05.438Z,50.40
2023-01-08T08:47:34.084Z,45.30
2023-01-08T08:50:02.406Z,41.10
2023-01-08T08:52:32.200Z,45.50
2023-01-08T08:55:00.680Z,40.60
2023-01-08T08:57:28.766Z,45.50
2023-01-08T08:59:56.794Z,48.90
2023-01-08T09:02:24.915Z,46.70
2023-01-08T09:04:53.180Z,50.70
2023-01-08T09:07:21.808Z,62.60
2023-01-08T09:09:49.813Z,52.90
2023-01-08T09:12:18.995Z,52.50
2023-01-08T09:14:47.019Z,51.20
2023-01-08T09:17:14.957Z,46.40
2023-01-08T09:19:43.035Z,49.30
2023-01-08T09:22:10.992Z,55.30
2023-01-08T09:24:39.138Z,45.20
2023-01-08T09:27:08.451Z,43.50
2023-01-08T09:29:37.553Z,42.70
2023-01-08T09:32:07.367Z,40.30
2023-01-08T09:34:38.531Z,32.00
2023-01-08T09:37:09.332Z,38.70
2023-01-08T09:39:39.261Z,36.20
2023-01-08T09:42:10.367Z,30.60
2023-01-08T09:44:41.615Z,33.80
2023-01-08T09:47:26.954Z,32.80
2023-01-08T09:50:01.837Z,36.60
2023-01-08T09:52:30.907Z,35.40
2023-01-08T09:55:00.900Z,29.20
2023-01-08T09:57:29.400Z,33.10
2023-01-08T09:59:59.693Z,30.10
2023-01-08T10:02:29.981Z,37.00
2023-01-08T10:05:03.985Z,35.40
2023-01-08T10:07:35.219Z,35.90
2023-01-08T10:10:03.869Z,41.10
2023-01-08T10:12:34.664Z,34.30
2023-01-08T10:15:11.154Z,37.90
2023-01-08T10:18:06.733Z,36.40
2023-01-08T10:20:35.734Z,36.70
2023-01-08T10:23:19.374Z,29.90
2023-01-08T10:26:01.046Z,33.70
2023-01-08T10:28:35.241Z,31.90
2023-01-08T10:31:11.822Z,30.40
2023-01-08T10:33:45.765Z,31.00
2023-01-08T10:36:17.384Z,30.40
2023-01-08T10:38:56.457Z,33.60
2023-01-08T10:41:24.615Z,34.00
2023-01-08T10:43:59.042Z,32.30
2023-01-08T10:46:37.192Z,35.00
2023-01-08T10:49:06.615Z,31.10
2023-01-08T10:51:34.616Z,33.20
2023-01-08T10:54:21.209Z,32.00
2023-01-08T10:56:49.193Z,30.80
2023-01-08T10:59:23.066Z,28.50
2023-01-08T11:01:56.125Z,31.60
2023-01-08T11:04:28.861Z,32.70
2023-01-08T11:06:59.990Z,33.40
2023-01-08T11:09:34.512Z,30.70
2023-01-08T11:12:02.625Z,35.70
2023-01-08T11:14:38.230Z,28.40
2023-01-08T11:17:11.725Z,29.30
2023-01-08T11:19:40.088Z,41.90
2023-01-08T11:22:23.785Z,76.50
2023-01-08T11:24:53.429Z,31.10
2023-01-08T11:27:42.053Z,32.20
2023-01-08T11:30:23.857Z,31.50
2023-01-08T11:33:13.276Z,31.10
2023-01-08T11:35:54.570Z,28.10
2023-01-08T11:38:29.924Z,26.20
2023-01-08T11:41:17.166Z,27.80
2023-01-08T11:44:09.579Z,31.30
2023-01-08T11:46:56.794Z,29.60
2023-01-08T11:49:42.259Z,32.30
2023-01-08T11:52:39.004Z,31.60
2023-01-08T11:55:29.659Z,32.80
2023-01-08T11:58:23.306Z,29.20
2023-01-08T12:01:44.916Z,31.30
2023-01-08T12:04:12.922Z,33.00
2023-01-08T12:07:08.194Z,32.10
2023-01-08T12:09:43.297Z,33.00
2023-01-08T12:13:05.411Z,35.10
2023-01-08T12:15:59.623Z,34.40
2023-01-08T12:18:57.646Z,31.40
2023-01-08T12:21:41.785Z,30.70
2023-01-08T12:24:19.501Z,34.10
2023-01-08T12:27:55.248Z,36.40
2023-01-08T12:30:33.337Z,35.20
2023-01-08T12:33:07.577Z,33.60
2023-01-08T12:35:43.444Z,32.40
2023-01-08T12:38:36.281Z,35.20
2023-01-08T12:41:13.439Z,34.30
2023-01-08T12:43:58.241Z,31.20
2023-01-08T12:46:29.356Z,30.80
2023-01-08T12:48:58.149Z,34.70
2023-01-08T12:51:36.584Z,36.50
2023-01-08T12:54:34.044Z,40.00
2023-01-08T12:57:42.472Z,41.50
2023-01-08T13:00:45.258Z,37.60
2023-01-08T13:03:21.618Z,35.40
2023-01-08T13:05:49.866Z,35.80
2023-01-08T13:08:38.267Z,36.00
2023-01-08T13:11:07.417Z,41.20
2023-01-08T13:13:41.247Z,45.60
2023-01-08T13:16:20.959Z,37.60
2023-01-08T13:19:04.328Z,38.00
2023-01-08T13:21:37.945Z,35.90
2023-01-08T13:24:35.691Z,39.50
2023-01-08T13:27:20.166Z,37.50
2023-01-08T13:29:49.827Z,39.50
2023-01-08T13:32:47.274Z,37.30
2023-01-08T13:35:15.461Z,37.20
2023-01-08T13:37:47.035Z,37.30
2023-01-08T13:40:39.368Z,36.80
2023-01-08T13:43:33.246Z,37.70
2023-01-08T13:46:01.192Z,37.50
2023-01-08T13:48:34.349Z,41.40
2023-01-08T13:51:02.792Z,50.80
2023-01-08T13:53:31.198Z,42.30
2023-01-08T13:56:06.992Z,62.00
2023-01-08T13:58:44.761Z,58.00
2023-01-08T14:01:14.373Z,55.20
2023-01-08T14:03:48.127Z,65.60
2023-01-08T14:06:22.188Z,63.60
2023-01-08T14:08:54.117Z,69.30
2023-01-08T14:11:28.762Z,61.70
2023-01-08T14:13:57.743Z,59.80
2023-01-08T14:16:26.074Z,68.60
2023-01-08T14:19:00.408Z,59.40
2023-01-08T14:21:30.641Z,56.90
2023-01-08T14:23:58.902Z,63.10
2023-01-08T14:26:36.631Z,61.40
2023-01-08T14:29:16.460Z,52.10
2023-01-08T14:31:56.121Z,50.00
2023-01-08T14:34:26.889Z,45.10
2023-01-08T14:36:56.214Z,46.30
2023-01-08T14:39:36.314Z,44.80
2023-01-08T14:42:31.911Z,40.90
2023-01-08T14:45:23.219Z,45.60
2023-01-08T14:47:54.880Z,40.30
2023-01-08T14:50:30.219Z,44.10
2023-01-08T14:53:09.058Z,46.10
2023-01-08T14:55:42.582Z,47.50
2023-01-08T14:58:22.083Z,43.50
2023-01-08T15:01:04.987Z,47.60
2023-01-08T15:06:11.671Z,56.30
2023-01-08T15:08:47.458Z,56.40
2023-01-08T15:11:31.173Z,54.30
2023-01-08T15:14:02.722Z,47.10
2023-01-08T15:16:42.792Z,50.50
2023-01-08T15:19:22.532Z,47.30
2023-01-08T15:21:53.023Z,44.90
2023-01-08T15:24:53.239Z,35.60
2023-01-08T15:27:21.504Z,43.30
2023-01-08T15:29:52.168Z,35.30
2023-01-08T15:32:23.175Z,40.20
2023-01-08T15:34:51.066Z,39.60
2023-01-08T15:37:19.047Z,36.80
2023-01-08T15:39:47.134Z,40.70
2023-01-08T15:42:41.437Z,39.70
2023-01-08T15:45:19.433Z,58.10
2023-01-08T15:47:47.977Z,54.90
2023-01-08T15:50:20.443Z,47.70
2023-01-08T15:52:48.770Z,53.70
2023-01-08T15:55:21.488Z,50.50
2023-01-08T16:00:22.623Z,75.90
2023-01-08T16:02:53.504Z,101.30
2023-01-08T16:05:28.413Z,97.10
2023-01-08T16:07:56.640Z,71.90
2023-01-08T16:10:25.005Z,64.00
2023-01-08T16:12:53.036Z,55.10
2023-01-08T16:15:31.009Z,73.20
2023-01-08T16:17:59.554Z,72.60
2023-01-08T16:20:27.541Z,72.10
2023-01-08T16:22:57.183Z,70.80
2023-01-08T16:25:25.256Z,58.10
2023-01-08T16:27:53.438Z,52.70
2023-01-08T16:30:26.623Z,52.50
2023-01-08T16:32:54.703Z,51.40
2023-01-08T16:35:22.854Z,47.00
2023-01-08T16:37:52.734Z,45.00
2023-01-08T16:40:20.841Z,62.70
2023-01-08T16:42:48.954Z,54.10
2023-01-08T16:45:17.106Z,46.60
2023-01-08T16:47:45.308Z,47.80
2023-01-08T16:50:13.473Z,44.80
2023-01-08T16:52:41.515Z,47.10
2023-01-08T16:55:10.989Z,47.40
2023-01-08T16:57:38.945Z,45.60
2023-01-08T17:00:09.106Z,51.60
2023-01-08T17:02:37.000Z,48.50
2023-01-08T17:05:08.986Z,49.00
2023-01-08T17:07:37.216Z,44.40
2023-01-08T17:10:06.188Z,48.10
2023-01-08T17:12:34.119Z,43.70
2023-01-08T17:15:02.099Z,45.30
2023-01-08T17:17:29.938Z,47.40
2023-01-08T17:19:57.786Z,46.10
2023-01-08T17:22:25.822Z,63.80
2023-01-08T17:24:53.843Z,81.30
2023-01-08T17:27:22.383Z,96.80
2023-01-08T17:29:50.249Z,75.30
2023-01-08T17:32:18.211Z,58.60
2023-01-08T17:34:46.570Z,49.40
2023-01-08T17:37:15.618Z,53.50
2023-01-08T17:39:43.853Z,48.50
2023-01-08T17:42:25.793Z,43.90
2023-01-08T17:44:58.819Z,42.60
2023-01-08T17:47:27.241Z,45.30
2023-01-08T17:49:56.968Z,49.80
2023-01-08T17:52:27.907Z,48.00
2023-01-08T17:54:55.831Z,43.50
2023-01-08T17:57:26.828Z,46.90
2023-01-08T17:59:54.713Z,47.90
2023-01-08T18:02:22.842Z,54.90
2023-01-08T18:04:50.842Z,81.00
2023-01-08T18:07:18.830Z,71.60
2023-01-08T18:09:46.725Z,77.90
2023-01-08T18:12:15.044Z,74.80
2023-01-08T18:14:44.148Z,56.90
2023-01-08T18:17:12.194Z,50.10
2023-01-08T18:19:43.545Z,49.90
2023-01-08T18:22:20.234Z,47.40
2023-01-08T18:24:50.965Z,41.10
2023-01-08T18:27:19.215Z,49.20
2023-01-08T18:29:47.226Z,46.10
2023-01-08T18:32:15.203Z,46.00
2023-01-08T18:34:43.469Z,45.20
2023-01-08T18:37:11.335Z,44.50
2023-01-08T18:39:39.224Z,48.60
2023-01-08T18:42:27.167Z,50.60
2023-01-08T18:45:00.430Z,47.20
2023-01-08T18:47:29.056Z,46.90
2023-01-08T18:49:59.860Z,45.60
2023-01-08T18:52:31.896Z,47.70
2023-01-08T18:54:59.874Z,44.40
2023-01-08T18:57:28.940Z,46.40
2023-01-08T18:59:57.134Z,50.00
2023-01-08T19:02:33.597Z,48.30
2023-01-08T19:05:01.991Z,49.00
2023-01-08T19:07:31.697Z,53.60
2023-01-08T19:10:01.203Z,50.00
2023-01-08T19:12:33.281Z,53.30
2023-01-08T19:15:01.398Z,50.80
2023-01-08T19:17:31.527Z,51.30
2023-01-08T19:20:03.719Z,49.60
2023-01-08T19:22:34.908Z,50.60
2023-01-08T19:25:03.329Z,52.00
2023-01-08T19:30:07.440Z,53.60
2023-01-08T19:32:40.714Z,48.60
2023-01-08T19:35:10.152Z,54.10
2023-01-08T19:40:24.979Z,51.00
2023-01-08T19:43:11.744Z,50.70
2023-01-08T19:45:43.856Z,64.50
2023-01-08T19:48:13.635Z,76.80
2023-01-08T19:50:59.126Z,79.30
2023-01-08T19:53:29.520Z,117.20
2023-01-08T19:56:06.322Z,163.00
2023-01-08T19:58:36.791Z,130.80
2023-01-08T20:01:38.730Z,92.40
2023-01-08T20:04:07.461Z,96.50
2023-01-08T20:06:37.973Z,78.70
2023-01-08T20:12:04.706Z,59.70
2023-01-08T20:14:34.469Z,53.90
2023-01-08T20:17:05.843Z,58.00
2023-01-08T20:19:42.144Z,58.30
2023-01-08T20:22:12.832Z,55.70
2023-01-08T20:24:47.929Z,50.00
2023-01-08T20:27:16.924Z,47.10
2023-01-08T20:29:48.943Z,46.20
2023-01-08T20:32:19.803Z,46.00
2023-01-08T20:34:52.031Z,54.80
2023-01-08T20:37:21.668Z,42.00
2023-01-08T20:39:52.497Z,49.40
2023-01-08T20:42:33.152Z,55.30
2023-01-08T20:45:05.836Z,54.70
2023-01-08T20:47:38.267Z,47.90
2023-01-08T20:50:19.491Z,49.20
2023-01-08T20:52:50.263Z,49.00
2023-01-08T20:58:47.721Z,49.80
2023-01-08T21:01:34.209Z,49.20
2023-01-08T21:06:34.613Z,52.70
2023-01-08T21:09:10.661Z,47.30
2023-01-08T21:11:40.996Z,54.20
2023-01-08T21:14:10.839Z,50.10
2023-01-08T21:16:40.828Z,49.50
2023-01-08T21:19:10.535Z,58.10
2023-01-08T21:21:41.038Z,60.10
2023-01-08T21:24:12.533Z,57.30
2023-01-08T21:26:42.017Z,61.70
2023-01-08T21:29:10.661Z,61.50
2023-01-08T21:31:39.422Z,66.50
2023-01-08T21:34:09.019Z,71.80
2023-01-08T21:36:39.375Z,63.50
2023-01-08T21:39:07.762Z,62.20
2023-01-08T21:41:54.266Z,64.90
2023-01-08T21:44:43.357Z,63.70
2023-01-08T21:47:16.587Z,69.60
2023-01-08T21:49:46.079Z,69.10
2023-01-08T21:52:32.848Z,65.20
2023-01-08T21:55:01.588Z,72.60
2023-01-08T21:57:29.540Z,73.30
2023-01-08T21:59:57.660Z,71.30
2023-01-08T22:02:25.663Z,92.50
2023-01-08T22:04:57.006Z,84.30
2023-01-08T22:07:26.261Z,85.30
2023-01-08T22:09:54.588Z,67.80
2023-01-08T22:12:24.231Z,102.30
2023-01-08T22:14:56.184Z,106.30
2023-01-08T22:17:26.231Z,110.40
2023-01-08T22:19:54.423Z,113.40
2023-01-08T22:22:22.314Z,117.80
2023-01-08T22:24:53.601Z,96.80
2023-01-08T22:27:21.880Z,89.80
2023-01-08T22:29:49.930Z,99.20
2023-01-08T22:32:17.963Z,113.60
2023-01-08T22:34:46.785Z,115.10
2023-01-08T22:37:16.882Z,127.10
2023-01-08T22:39:45.993Z,129.70
2023-01-08T22:42:13.899Z,130.70
2023-01-08T22:44:41.975Z,140.70
2023-01-08T22:47:10.204Z,173.50
2023-01-08T22:49:38.261Z,165.30
2023-01-08T22:52:07.079Z,144.80
2023-01-08T22:54:35.047Z,168.60
2023-01-08T22:57:02.978Z,170.00
2023-01-08T22:59:30.912Z,158.30
2023-01-08T23:01:58.825Z,170.50
2023-01-08T23:04:26.742Z,254.50
2023-01-08T23:06:54.620Z,324.20
2023-01-08T23:09:22.702Z,353.00
2023-01-08T23:11:50.603Z,370.90
2023-01-08T23:14:18.561Z,368.80
2023-01-08T23:16:46.443Z,339.90
2023-01-08T23:19:14.414Z,310.80
2023-01-08T23:21:42.333Z,256.70
2023-01-08T23:24:13.617Z,234.60
2023-01-08T23:26:42.500Z,228.20
2023-01-08T23:29:11.100Z,211.10
2023-01-08T23:31:39.323Z,217.30
2023-01-08T23:34:07.804Z,141.00
2023-01-08T23:36:35.923Z,156.50
2023-01-08T23:39:04.735Z,145.60
2023-01-08T23:41:34.872Z,108.10
2023-01-08T23:44:07.933Z,117.10
2023-01-08T23:46:36.226Z,114.90
2023-01-08T23:49:07.143Z,105.90
2023-01-08T23:51:35.076Z,108.30
2023-01-08T23:54:03.520Z,93.60
2023-01-08T23:56:31.864Z,73.30
2023-01-08T23:58:59.682Z,72.40
